createdAt,value
2023-02-03T00:00:09.187Z,2.31
2023-02-03T00:01:10.929Z,2.32
2023-02-03T00:02:12.778Z,2.32
2023-02-03T00:03:14.605Z,2.30
2023-02-03T00:04:16.486Z,2.29
2023-02-03T00:05:18.300Z,2.27
2023-02-03T00:06:20.143Z,2.27
2023-02-03T00:07:22.921Z,2.26
2023-02-03T00:08:24.727Z,2.25
2023-02-03T00:09:26.629Z,2.26
2023-02-03T00:10:28.487Z,2.27
2023-02-03T00:11:31.052Z,2.24
2023-02-03T00:12:33.160Z,2.26
2023-02-03T00:13:35.514Z,2.25
2023-02-03T00:14:38.215Z,2.22
2023-02-03T00:15:40.022Z,2.24
2023-02-03T00:16:41.989Z,2.22
2023-02-03T00:17:43.783Z,2.22
2023-02-03T00:18:45.554Z,2.23
2023-02-03T00:19:47.371Z,2.24
2023-02-03T00:20:49.212Z,2.27
2023-02-03T00:21:51.015Z,2.27
2023-02-03T00:22:52.809Z,2.26
2023-02-03T00:23:54.949Z,2.25
2023-02-03T00:24:56.786Z,2.25
2023-02-03T00:26:06.548Z,2.23
2023-02-03T00:27:08.500Z,2.23
2023-02-03T00:28:10.368Z,2.23
2023-02-03T00:29:12.267Z,2.23
2023-02-03T00:30:14.151Z,2.24
2023-02-03T00:31:17.292Z,2.25
2023-02-03T00:32:19.168Z,2.28
2023-02-03T00:33:21.068Z,2.28
2023-02-03T00:34:22.882Z,2.30
2023-02-03T00:35:24.656Z,2.32
2023-02-03T00:36:26.749Z,2.29
2023-02-03T00:37:28.680Z,2.29
2023-02-03T00:38:30.505Z,2.27
2023-02-03T00:39:32.305Z,2.27
2023-02-03T00:40:34.168Z,2.27
2023-02-03T00:41:35.959Z,2.25
2023-02-03T00:42:37.761Z,2.24
2023-02-03T00:43:39.636Z,2.24
2023-02-03T00:44:41.678Z,2.25
2023-02-03T00:45:43.490Z,2.24
2023-02-03T00:46:45.336Z,2.26
2023-02-03T00:47:47.285Z,2.25
2023-02-03T00:48:49.115Z,2.23
2023-02-03T00:49:50.913Z,2.22
2023-02-03T00:50:52.917Z,2.17
2023-02-03T00:51:54.643Z,2.15
2023-02-03T00:52:56.448Z,2.17
2023-02-03T00:53:58.291Z,2.15
2023-02-03T00:55:00.139Z,2.16
2023-02-03T00:56:02.018Z,2.16
2023-02-03T00:57:03.915Z,2.16
2023-02-03T00:58:05.758Z,2.15
2023-02-03T00:59:07.572Z,2.17
2023-02-03T01:00:09.694Z,2.17
2023-02-03T01:01:12.050Z,2.17
2023-02-03T01:02:13.977Z,2.17
2023-02-03T01:03:16.883Z,2.16
2023-02-03T01:04:18.665Z,2.18
2023-02-03T01:05:20.481Z,2.18
2023-02-03T01:06:22.724Z,2.16
2023-02-03T01:07:24.490Z,2.18
2023-02-03T01:08:26.872Z,2.16
2023-02-03T01:09:28.668Z,2.19
2023-02-03T01:10:30.661Z,2.21
2023-02-03T01:11:32.865Z,2.20
2023-02-03T01:12:34.746Z,2.19
2023-02-03T01:13:36.872Z,2.16
2023-02-03T01:14:38.660Z,2.17
2023-02-03T01:15:46.094Z,2.17
2023-02-03T01:16:47.932Z,2.16
2023-02-03T01:17:50.185Z,2.17
2023-02-03T01:18:51.966Z,2.17
2023-02-03T01:19:53.795Z,2.18
2023-02-03T01:20:55.667Z,2.17
2023-02-03T01:21:57.467Z,2.17
2023-02-03T01:22:59.253Z,2.18
2023-02-03T01:24:01.640Z,2.16
2023-02-03T01:25:03.417Z,2.17
2023-02-03T01:26:06.843Z,2.15
2023-02-03T01:27:08.810Z,2.13
2023-02-03T01:28:10.971Z,2.11
2023-02-03T01:29:12.823Z,2.12
2023-02-03T01:30:14.817Z,2.13
2023-02-03T01:31:18.973Z,2.12
2023-02-03T01:32:20.971Z,2.10
2023-02-03T01:33:22.828Z,2.11
2023-02-03T01:34:24.647Z,2.13
2023-02-03T01:35:26.528Z,2.16
2023-02-03T01:36:29.712Z,2.17
2023-02-03T01:37:31.621Z,2.18
2023-02-03T01:38:33.413Z,2.17
2023-02-03T01:39:35.160Z,2.17
2023-02-03T01:40:43.093Z,2.16
2023-02-03T01:41:44.928Z,2.12
2023-02-03T01:42:46.802Z,2.07
2023-02-03T01:43:50.064Z,1.98
2023-02-03T01:44:52.776Z,1.94
2023-02-03T01:45:54.573Z,1.96
2023-02-03T01:46:56.390Z,2.02
2023-02-03T01:47:59.965Z,2.04
2023-02-03T01:49:06.565Z,2.03
2023-02-03T01:50:08.415Z,2.00
2023-02-03T01:51:10.413Z,2.00
2023-02-03T01:52:12.209Z,2.04
2023-02-03T01:53:14.253Z,2.07
2023-02-03T01:54:18.654Z,2.09
2023-02-03T01:55:23.218Z,2.08
2023-02-03T01:56:28.993Z,2.01
2023-02-03T01:57:34.245Z,2.02
2023-02-03T01:58:38.479Z,1.97
2023-02-03T01:59:40.448Z,1.93
2023-02-03T02:00:44.042Z,1.90
2023-02-03T02:01:46.834Z,1.92
2023-02-03T02:02:49.215Z,1.92
2023-02-03T02:03:54.032Z,1.91
2023-02-03T02:04:55.796Z,1.89
2023-02-03T02:06:02.085Z,1.91
2023-02-03T02:07:04.535Z,1.94
2023-02-03T02:08:07.569Z,1.91
2023-02-03T02:09:09.625Z,1.93
2023-02-03T02:10:11.553Z,1.94
2023-02-03T02:11:13.485Z,1.94
2023-02-03T02:12:15.304Z,1.95
2023-02-03T02:13:18.416Z,1.94
2023-02-03T02:14:20.222Z,1.93
2023-02-03T02:15:24.888Z,1.97
2023-02-03T02:16:35.507Z,1.96
2023-02-03T02:17:37.428Z,1.97
2023-02-03T02:18:49.879Z,2.00
2023-02-03T02:19:54.705Z,2.03
2023-02-03T02:21:14.800Z,2.06
2023-02-03T02:22:16.538Z,2.09
2023-02-03T02:23:52.850Z,2.09
2023-02-03T02:25:13.417Z,2.05
2023-02-03T02:26:15.208Z,2.03
2023-02-03T02:27:25.760Z,2.03
2023-02-03T02:28:43.936Z,2.06
2023-02-03T02:30:03.936Z,2.07
2023-02-03T02:31:14.974Z,2.09
2023-02-03T02:32:16.750Z,2.08
2023-02-03T02:33:26.777Z,2.08
2023-02-03T02:34:28.525Z,2.08
2023-02-03T02:35:38.833Z,2.01
2023-02-03T02:36:55.395Z,1.99
2023-02-03T02:37:57.133Z,2.01
2023-02-03T02:39:07.277Z,2.04
2023-02-03T02:40:11.685Z,2.04
2023-02-03T02:41:19.589Z,2.05
2023-02-03T02:42:27.052Z,2.07
2023-02-03T02:43:33.373Z,2.06
2023-02-03T02:44:44.380Z,2.03
2023-02-03T02:45:46.251Z,1.90
2023-02-03T02:46:50.010Z,1.89
2023-02-03T02:47:54.153Z,1.91
2023-02-03T02:48:59.850Z,1.96
2023-02-03T02:50:07.667Z,1.99
2023-02-03T02:51:12.666Z,2.02
2023-02-03T02:52:15.760Z,2.00
2023-02-03T02:53:20.323Z,1.98
2023-02-03T02:54:24.202Z,1.96
2023-02-03T02:55:31.705Z,1.97
2023-02-03T02:56:35.053Z,2.01
2023-02-03T02:57:38.066Z,2.03
2023-02-03T02:58:41.564Z,2.05
2023-02-03T02:59:43.385Z,2.04
2023-02-03T03:00:45.845Z,2.04
2023-02-03T03:01:47.695Z,2.00
2023-02-03T03:02:49.517Z,1.94
2023-02-03T03:03:52.481Z,1.91
2023-02-03T03:04:54.636Z,1.91
2023-02-03T03:06:04.160Z,1.93
2023-02-03T03:07:12.320Z,1.92
2023-02-03T03:08:15.568Z,1.88
2023-02-03T03:09:22.047Z,1.85
2023-02-03T03:10:27.955Z,1.88
2023-02-03T03:11:32.724Z,1.92
2023-02-03T03:12:39.910Z,1.94
2023-02-03T03:13:45.301Z,1.94
2023-02-03T03:14:50.777Z,1.94
2023-02-03T03:15:53.780Z,1.90
2023-02-03T03:17:00.372Z,1.83
2023-02-03T03:18:06.007Z,1.77
2023-02-03T03:19:10.493Z,1.74
2023-02-03T03:20:16.630Z,1.77
2023-02-03T03:21:23.039Z,1.82
2023-02-03T03:22:29.133Z,1.85
2023-02-03T03:23:32.381Z,1.89
2023-02-03T03:24:37.049Z,1.88
2023-02-03T03:25:43.936Z,1.88
2023-02-03T03:26:52.505Z,1.89
2023-02-03T03:28:02.075Z,1.86
2023-02-03T03:29:08.050Z,1.88
2023-02-03T03:30:12.130Z,1.90
2023-02-03T03:31:14.107Z,1.93
2023-02-03T03:32:16.054Z,1.94
2023-02-03T03:33:17.858Z,1.97
2023-02-03T03:34:20.029Z,1.97
2023-02-03T03:35:23.400Z,1.99
2023-02-03T03:36:31.212Z,2.03
2023-02-03T03:37:36.647Z,2.00
2023-02-03T03:38:43.099Z,1.90
2023-02-03T03:39:50.815Z,1.82
2023-02-03T03:40:55.487Z,1.77
2023-02-03T03:42:04.809Z,1.80
2023-02-03T03:43:24.367Z,1.83
2023-02-03T03:44:30.038Z,1.79
2023-02-03T03:45:41.323Z,1.80
2023-02-03T03:46:50.747Z,1.85
2023-02-03T03:47:58.990Z,1.87
2023-02-03T03:49:03.204Z,1.90
2023-02-03T03:50:07.268Z,1.92
2023-02-03T03:51:12.189Z,1.91
2023-02-03T03:52:17.081Z,1.95
2023-02-03T03:53:20.135Z,1.97
2023-02-03T03:54:23.641Z,1.98
2023-02-03T03:55:28.326Z,1.98
2023-02-03T03:56:35.725Z,1.97
2023-02-03T03:57:40.213Z,1.87
2023-02-03T03:58:45.491Z,1.88
2023-02-03T03:59:48.981Z,1.89
2023-02-03T04:00:51.650Z,1.86
2023-02-03T04:01:54.199Z,1.84
2023-02-03T04:02:57.237Z,1.84
2023-02-03T04:04:01.269Z,1.84
2023-02-03T04:05:03.701Z,1.84
2023-02-03T04:06:06.090Z,1.87
2023-02-03T04:07:07.936Z,1.90
2023-02-03T04:08:09.910Z,1.91
2023-02-03T04:09:11.809Z,1.92
2023-02-03T04:10:22.192Z,1.92
2023-02-03T04:11:42.720Z,1.90
2023-02-03T04:12:44.569Z,1.91
2023-02-03T04:13:46.317Z,1.92
2023-02-03T04:14:48.125Z,1.96
2023-02-03T04:15:49.982Z,2.00
2023-02-03T04:16:51.810Z,2.03
2023-02-03T04:17:55.249Z,2.03
2023-02-03T04:18:57.599Z,2.00
2023-02-03T04:19:59.439Z,1.97
2023-02-03T04:21:01.269Z,1.96
2023-02-03T04:22:03.109Z,1.95
2023-02-03T04:23:05.005Z,1.91
2023-02-03T04:24:07.250Z,1.85
2023-02-03T04:25:09.724Z,1.87
2023-02-03T04:26:11.652Z,1.88
2023-02-03T04:27:13.438Z,1.89
2023-02-03T04:28:15.417Z,1.88
2023-02-03T04:29:17.180Z,1.89
2023-02-03T04:30:19.121Z,1.93
2023-02-03T04:31:21.074Z,1.94
2023-02-03T04:32:22.951Z,1.93
2023-02-03T04:33:24.813Z,1.87
2023-02-03T04:34:26.577Z,1.83
2023-02-03T04:35:28.353Z,1.82
2023-02-03T04:36:30.246Z,1.84
2023-02-03T04:37:32.040Z,1.86
2023-02-03T04:38:33.877Z,1.88
2023-02-03T04:39:35.610Z,1.91
2023-02-03T04:40:37.537Z,1.95
2023-02-03T04:41:39.369Z,1.99
2023-02-03T04:42:41.228Z,2.02
2023-02-03T04:43:43.178Z,2.06
2023-02-03T04:44:45.105Z,2.05
2023-02-03T04:45:47.008Z,2.00
2023-02-03T04:46:48.787Z,1.92
2023-02-03T04:47:54.744Z,1.92
2023-02-03T04:48:56.773Z,1.96
2023-02-03T04:49:58.602Z,2.00
2023-02-03T04:51:04.141Z,2.04
2023-02-03T04:52:06.508Z,2.08
2023-02-03T04:53:08.309Z,2.06
2023-02-03T04:54:10.793Z,2.07
2023-02-03T04:55:12.530Z,2.06
2023-02-03T04:56:16.322Z,2.06
2023-02-03T04:57:18.115Z,2.09
2023-02-03T04:58:19.872Z,2.10
2023-02-03T04:59:21.693Z,2.10
2023-02-03T05:00:23.568Z,2.11
2023-02-03T05:01:25.602Z,2.12
2023-02-03T05:02:27.498Z,2.06
2023-02-03T05:03:29.283Z,2.04
2023-02-03T05:04:31.659Z,2.05
2023-02-03T05:05:33.428Z,2.03
2023-02-03T05:06:35.343Z,1.96
2023-02-03T05:07:37.206Z,1.90
2023-02-03T05:08:39.022Z,1.92
2023-02-03T05:09:40.915Z,1.95
2023-02-03T05:10:42.650Z,1.92
2023-02-03T05:11:44.448Z,1.92
2023-02-03T05:12:46.316Z,1.90
2023-02-03T05:13:48.435Z,1.94
2023-02-03T05:14:50.276Z,1.95
2023-02-03T05:15:52.068Z,1.97
2023-02-03T05:16:54.062Z,1.96
2023-02-03T05:17:56.375Z,1.94
2023-02-03T05:18:58.199Z,1.89
2023-02-03T05:20:00.014Z,1.85
2023-02-03T05:21:01.830Z,1.86
2023-02-03T05:22:03.857Z,1.89
2023-02-03T05:23:05.765Z,1.85
2023-02-03T05:24:08.232Z,1.81
2023-02-03T05:25:10.504Z,1.78
2023-02-03T05:26:12.534Z,1.70
2023-02-03T05:27:14.379Z,1.72
2023-02-03T05:28:16.247Z,1.76
2023-02-03T05:29:18.014Z,1.76
2023-02-03T05:30:19.829Z,1.77
2023-02-03T05:31:21.799Z,1.73
2023-02-03T05:32:23.576Z,1.67
2023-02-03T05:33:25.471Z,1.66
2023-02-03T05:34:27.331Z,1.70
2023-02-03T05:35:29.095Z,1.76
2023-02-03T05:36:31.065Z,1.80
2023-02-03T05:37:32.889Z,1.76
2023-02-03T05:38:34.660Z,1.75
2023-02-03T05:39:36.488Z,1.75
2023-02-03T05:40:56.952Z,1.79
2023-02-03T05:41:59.440Z,1.80
2023-02-03T05:43:01.270Z,1.83
2023-02-03T05:44:03.030Z,1.86
2023-02-03T05:45:04.982Z,1.89
2023-02-03T05:46:07.991Z,1.92
2023-02-03T05:47:09.902Z,1.90
2023-02-03T05:48:11.977Z,1.86
2023-02-03T05:49:14.079Z,1.83
2023-02-03T05:50:15.918Z,1.84
2023-02-03T05:51:17.701Z,1.89
2023-02-03T05:52:19.537Z,1.92
2023-02-03T05:53:21.590Z,1.94
2023-02-03T05:54:23.433Z,1.95
2023-02-03T05:55:25.205Z,1.97
2023-02-03T05:56:27.008Z,2.00
2023-02-03T05:57:30.718Z,2.02
2023-02-03T05:58:33.851Z,2.02
2023-02-03T05:59:35.632Z,1.94
2023-02-03T06:00:37.961Z,1.86
2023-02-03T06:01:39.777Z,1.91
2023-02-03T06:02:41.624Z,1.97
2023-02-03T06:03:46.022Z,1.97
2023-02-03T06:04:48.299Z,1.99
2023-02-03T06:05:50.201Z,1.99
2023-02-03T06:06:51.959Z,2.02
2023-02-03T06:07:53.863Z,2.05
2023-02-03T06:08:57.246Z,2.00
2023-02-03T06:09:59.160Z,1.94
2023-02-03T06:11:01.091Z,1.94
2023-02-03T06:12:02.899Z,1.95
2023-02-03T06:13:08.910Z,1.94
2023-02-03T06:14:10.827Z,1.98
2023-02-03T06:15:12.701Z,1.99
2023-02-03T06:16:14.903Z,1.97
2023-02-03T06:17:16.675Z,1.95
2023-02-03T06:18:18.414Z,1.99
2023-02-03T06:19:20.268Z,2.03
2023-02-03T06:20:22.124Z,2.06
2023-02-03T06:21:24.089Z,2.07
2023-02-03T06:22:25.868Z,2.04
2023-02-03T06:23:27.711Z,2.00
2023-02-03T06:24:29.605Z,2.00
2023-02-03T06:25:32.921Z,2.00
2023-02-03T06:26:34.790Z,1.92
2023-02-03T06:27:36.656Z,1.93
2023-02-03T06:28:38.609Z,1.95
2023-02-03T06:29:40.633Z,1.95
2023-02-03T06:30:42.912Z,1.97
2023-02-03T06:31:45.065Z,1.98
2023-02-03T06:32:48.328Z,2.03
2023-02-03T06:33:50.116Z,2.04
2023-02-03T06:34:52.021Z,2.06
2023-02-03T06:35:54.253Z,2.04
2023-02-03T06:36:56.136Z,2.07
2023-02-03T06:37:57.995Z,2.09
2023-02-03T06:38:59.794Z,2.07
2023-02-03T06:40:02.259Z,1.98
2023-02-03T06:41:04.145Z,1.96
2023-02-03T06:42:06.049Z,1.96
2023-02-03T06:43:07.911Z,1.98
2023-02-03T06:44:09.722Z,2.01
2023-02-03T06:45:11.619Z,2.00
2023-02-03T06:46:13.420Z,2.00
2023-02-03T06:47:15.222Z,2.04
2023-02-03T06:48:17.088Z,2.03
2023-02-03T06:49:19.120Z,2.01
2023-02-03T06:50:21.138Z,2.00
2023-02-03T06:51:25.026Z,2.01
2023-02-03T06:52:26.760Z,2.05
2023-02-03T06:53:28.552Z,2.09
2023-02-03T06:54:31.117Z,2.13
2023-02-03T06:55:32.926Z,2.14
2023-02-03T06:56:34.744Z,2.16
2023-02-03T06:57:36.588Z,2.19
2023-02-03T06:58:38.401Z,2.19
2023-02-03T06:59:40.252Z,2.23
2023-02-03T07:00:42.125Z,2.25
2023-02-03T07:01:43.943Z,2.27
2023-02-03T07:02:46.620Z,2.28
2023-02-03T07:03:48.467Z,2.25
2023-02-03T07:04:50.768Z,2.24
2023-02-03T07:05:52.686Z,2.26
2023-02-03T07:06:54.612Z,2.25
2023-02-03T07:07:56.371Z,2.25
2023-02-03T07:09:00.675Z,2.25
2023-02-03T07:10:04.072Z,2.25
2023-02-03T07:11:06.020Z,2.22
2023-02-03T07:12:08.267Z,2.20
2023-02-03T07:13:10.106Z,2.20
2023-02-03T07:14:11.938Z,2.22
2023-02-03T07:15:13.789Z,2.25
2023-02-03T07:16:15.713Z,2.27
2023-02-03T07:17:17.491Z,2.32
2023-02-03T07:18:45.846Z,2.35
2023-02-03T07:19:45.915Z,2.36
2023-02-03T07:20:47.793Z,2.38
2023-02-03T07:21:49.629Z,2.39
2023-02-03T07:22:52.064Z,2.40
2023-02-03T07:23:53.974Z,2.42
2023-02-03T07:24:55.847Z,2.43
2023-02-03T07:26:01.642Z,2.44
2023-02-03T07:27:04.655Z,2.45
2023-02-03T07:28:06.661Z,2.41
2023-02-03T07:29:08.628Z,2.38
2023-02-03T07:30:10.829Z,2.37
2023-02-03T07:31:12.765Z,2.38
2023-02-03T07:32:15.039Z,2.36
2023-02-03T07:33:16.952Z,2.41
2023-02-03T07:34:18.799Z,2.45
2023-02-03T07:35:21.069Z,2.46
2023-02-03T07:36:23.043Z,2.48
2023-02-03T07:37:24.929Z,2.51
2023-02-03T07:38:27.617Z,2.54
2023-02-03T07:39:29.490Z,2.55
2023-02-03T07:40:31.332Z,2.57
2023-02-03T07:41:33.247Z,2.59
2023-02-03T07:42:35.303Z,2.62
2023-02-03T07:43:37.070Z,2.59
2023-02-03T07:44:39.433Z,2.56
2023-02-03T07:45:41.351Z,2.54
2023-02-03T07:46:45.149Z,2.57
2023-02-03T07:47:47.017Z,2.57
2023-02-03T07:48:48.741Z,2.56
2023-02-03T07:49:50.601Z,2.52
2023-02-03T07:50:53.163Z,2.53
2023-02-03T07:51:55.220Z,2.65
2023-02-03T07:52:57.059Z,2.66
2023-02-03T07:53:58.829Z,2.68
2023-02-03T07:55:00.630Z,2.71
2023-02-03T07:56:03.349Z,2.73
2023-02-03T07:57:05.175Z,2.74
2023-02-03T07:58:07.159Z,2.72
2023-02-03T07:59:08.923Z,2.72
2023-02-03T08:00:12.163Z,2.75
2023-02-03T08:01:15.427Z,2.74
2023-02-03T08:02:17.232Z,2.72
2023-02-03T08:03:19.059Z,2.68
2023-02-03T08:04:21.138Z,2.66
2023-02-03T08:05:23.042Z,2.60
2023-02-03T08:06:25.764Z,2.55
2023-02-03T08:07:27.571Z,2.59
2023-02-03T08:08:29.450Z,2.64
2023-02-03T08:09:31.250Z,2.66
2023-02-03T08:10:33.120Z,2.68
2023-02-03T08:11:34.950Z,2.71
2023-02-03T08:12:36.871Z,2.73
2023-02-03T08:13:38.673Z,2.72
2023-02-03T08:14:40.485Z,2.70
2023-02-03T08:15:42.336Z,2.69
2023-02-03T08:16:44.204Z,2.72
2023-02-03T08:17:46.573Z,2.76
2023-02-03T08:18:48.616Z,2.80
2023-02-03T08:19:50.551Z,2.86
2023-02-03T08:20:52.458Z,2.87
2023-02-03T08:21:54.270Z,2.87
2023-02-03T08:22:56.124Z,2.81
2023-02-03T08:23:58.040Z,2.79
2023-02-03T08:24:59.788Z,2.76
2023-02-03T08:26:01.661Z,2.79
2023-02-03T08:27:03.540Z,2.80
2023-02-03T08:28:05.483Z,2.82
2023-02-03T08:29:08.273Z,2.85
2023-02-03T08:30:12.757Z,2.87
2023-02-03T08:31:14.789Z,2.90
2023-02-03T08:32:18.955Z,2.92
2023-02-03T08:33:20.865Z,2.91
2023-02-03T08:34:22.753Z,2.88
2023-02-03T08:35:24.902Z,2.88
2023-02-03T08:36:44.954Z,2.90
2023-02-03T08:37:46.833Z,2.90
2023-02-03T08:38:48.726Z,2.90
2023-02-03T08:39:50.801Z,2.90
2023-02-03T08:40:52.764Z,2.91
2023-02-03T08:41:54.691Z,2.94
2023-02-03T08:42:56.608Z,2.95
2023-02-03T08:43:58.519Z,2.95
2023-02-03T08:45:00.430Z,2.97
2023-02-03T08:46:06.724Z,3.00
2023-02-03T08:47:08.577Z,3.01
2023-02-03T08:48:10.425Z,3.02
2023-02-03T08:49:12.593Z,3.03
2023-02-03T08:50:14.496Z,3.01
2023-02-03T08:51:17.500Z,3.00
2023-02-03T08:52:19.819Z,2.98
2023-02-03T08:53:21.763Z,2.98
2023-02-03T08:54:24.299Z,2.96
2023-02-03T08:55:26.133Z,2.95
2023-02-03T08:56:28.023Z,2.97
2023-02-03T08:57:32.841Z,3.02
2023-02-03T08:58:34.698Z,3.08
2023-02-03T08:59:38.987Z,3.11
2023-02-03T09:00:40.813Z,3.13
2023-02-03T09:01:46.091Z,3.11
2023-02-03T09:02:48.079Z,2.99
2023-02-03T09:03:50.012Z,2.91
2023-02-03T09:04:52.351Z,2.94
2023-02-03T09:05:54.516Z,2.99
2023-02-03T09:06:56.589Z,3.02
2023-02-03T09:07:58.480Z,3.06
2023-02-03T09:09:00.391Z,3.08
2023-02-03T09:10:02.795Z,3.10
2023-02-03T09:11:08.799Z,3.12
2023-02-03T09:12:13.294Z,3.16
2023-02-03T09:13:15.516Z,3.18
2023-02-03T09:14:17.481Z,3.18
2023-02-03T09:15:21.725Z,3.22
2023-02-03T09:16:25.068Z,3.25
2023-02-03T09:17:28.311Z,3.27
2023-02-03T09:18:30.259Z,3.28
2023-02-03T09:19:34.746Z,3.26
2023-02-03T09:20:37.358Z,3.26
2023-02-03T09:21:41.326Z,3.27
2023-02-03T09:22:46.788Z,3.30
2023-02-03T09:23:48.914Z,3.32
2023-02-03T09:24:51.686Z,3.31
2023-02-03T09:25:53.607Z,3.34
2023-02-03T09:26:56.223Z,3.42
2023-02-03T09:27:58.125Z,3.48
2023-02-03T09:29:00.127Z,3.53
2023-02-03T09:30:02.096Z,3.60
2023-02-03T09:31:05.446Z,3.62
2023-02-03T09:32:10.688Z,3.59
2023-02-03T09:33:12.639Z,3.62
2023-02-03T09:34:14.560Z,3.60
2023-02-03T09:35:16.442Z,3.60
2023-02-03T09:36:18.306Z,3.57
2023-02-03T09:37:20.179Z,3.57
2023-02-03T09:38:22.246Z,3.58
2023-02-03T09:39:24.209Z,3.57
2023-02-03T09:40:30.100Z,3.57
2023-02-03T09:41:32.177Z,3.57
2023-02-03T09:42:35.083Z,3.60
2023-02-03T09:44:03.017Z,3.62
2023-02-03T09:45:07.952Z,3.64
2023-02-03T09:46:18.150Z,3.64
2023-02-03T09:47:25.965Z,3.63
2023-02-03T09:48:31.880Z,3.63
2023-02-03T09:49:36.415Z,3.65
2023-02-03T09:50:40.348Z,3.61
2023-02-03T09:52:08.655Z,3.55
2023-02-03T09:53:30.737Z,3.52
2023-02-03T09:54:39.534Z,3.56
2023-02-03T09:55:43.378Z,3.62
2023-02-03T09:56:51.085Z,3.66
2023-02-03T09:57:57.545Z,3.68
2023-02-03T09:59:00.147Z,3.73
2023-02-03T10:00:04.120Z,3.76
2023-02-03T10:01:10.251Z,3.76
2023-02-03T10:02:12.077Z,3.72
2023-02-03T10:03:17.224Z,3.72
2023-02-03T10:04:24.751Z,3.69
2023-02-03T10:05:26.715Z,3.70
2023-02-03T10:06:31.516Z,3.68
2023-02-03T10:07:41.728Z,3.73
2023-02-03T10:08:58.136Z,3.77
2023-02-03T10:10:06.285Z,3.80
2023-02-03T10:11:11.005Z,3.84
2023-02-03T10:12:12.775Z,3.86
2023-02-03T10:13:31.600Z,3.87
2023-02-03T10:14:33.621Z,3.89
2023-02-03T10:15:54.017Z,3.89
2023-02-03T10:17:04.718Z,3.90
2023-02-03T10:18:26.738Z,3.89
2023-02-03T10:19:47.281Z,3.88
2023-02-03T10:20:49.093Z,3.88
2023-02-03T10:21:55.568Z,3.91
2023-02-03T10:22:59.061Z,3.90
2023-02-03T10:24:02.246Z,3.92
2023-02-03T10:25:04.074Z,3.92
2023-02-03T10:26:07.900Z,3.93
2023-02-03T10:27:16.827Z,3.93
2023-02-03T10:28:19.845Z,3.86
2023-02-03T10:29:28.324Z,3.80
2023-02-03T10:30:34.777Z,3.73
2023-02-03T10:31:37.878Z,3.67
2023-02-03T10:32:39.779Z,3.60
2023-02-03T10:33:41.663Z,3.58
2023-02-03T10:34:45.242Z,3.61
2023-02-03T10:35:51.870Z,3.63
2023-02-03T10:36:57.858Z,3.64
2023-02-03T10:38:00.363Z,3.73
2023-02-03T10:39:08.792Z,3.82
2023-02-03T10:40:14.836Z,3.89
2023-02-03T10:41:17.475Z,3.95
2023-02-03T10:42:20.098Z,4.01
2023-02-03T10:43:40.832Z,4.05
2023-02-03T10:44:48.491Z,4.07
2023-02-03T10:45:50.536Z,4.10
2023-02-03T10:46:52.361Z,4.09
2023-02-03T10:47:55.714Z,4.08
2023-02-03T10:48:57.625Z,4.10
2023-02-03T10:50:01.669Z,4.10
2023-02-03T10:51:03.735Z,4.11
2023-02-03T10:52:05.715Z,4.13
2023-02-03T10:53:23.273Z,4.20
2023-02-03T10:54:30.825Z,4.27
2023-02-03T10:55:32.727Z,4.33
2023-02-03T10:56:39.041Z,4.35
2023-02-03T10:57:40.909Z,4.37
2023-02-03T10:58:50.558Z,4.35
2023-02-03T10:59:52.403Z,4.30
2023-02-03T11:01:12.834Z,4.31
2023-02-03T11:02:26.256Z,4.30
2023-02-03T11:03:31.077Z,4.29
2023-02-03T11:04:33.476Z,4.28
2023-02-03T11:05:35.634Z,4.27
2023-02-03T11:06:53.815Z,4.27
2023-02-03T11:07:56.492Z,4.29
2023-02-03T11:08:58.347Z,4.30
2023-02-03T11:10:00.288Z,4.32
2023-02-03T11:11:04.436Z,4.33
2023-02-03T11:12:17.270Z,4.32
2023-02-03T11:13:24.272Z,4.37
2023-02-03T11:14:26.086Z,4.37
2023-02-03T11:15:28.325Z,4.39
2023-02-03T11:16:32.537Z,4.40
2023-02-03T11:17:36.734Z,4.39
2023-02-03T11:18:38.524Z,4.42
2023-02-03T11:19:40.392Z,4.44
2023-02-03T11:20:42.379Z,4.44
2023-02-03T11:21:46.851Z,4.43
2023-02-03T11:22:48.907Z,4.43
2023-02-03T11:24:09.040Z,4.39
2023-02-03T11:25:19.287Z,4.39
2023-02-03T11:26:23.277Z,4.34
2023-02-03T11:27:25.648Z,4.29
2023-02-03T11:28:29.167Z,4.29
2023-02-03T11:29:32.446Z,4.29
2023-02-03T11:30:34.372Z,4.32
2023-02-03T11:31:37.300Z,4.34
2023-02-03T11:32:43.928Z,4.38
2023-02-03T11:33:49.521Z,4.43
2023-02-03T11:34:58.953Z,4.44
2023-02-03T11:36:02.861Z,4.46
2023-02-03T11:37:23.256Z,4.45
2023-02-03T11:38:32.819Z,4.47
2023-02-03T11:39:37.599Z,4.47
2023-02-03T11:40:41.503Z,4.44
2023-02-03T11:41:43.491Z,4.44
2023-02-03T11:42:46.695Z,4.42
2023-02-03T11:43:48.731Z,4.42
2023-02-03T11:44:51.348Z,4.43
2023-02-03T11:45:54.932Z,4.42
2023-02-03T11:47:02.582Z,4.44
2023-02-03T11:48:16.380Z,4.45
2023-02-03T11:49:41.601Z,4.43
2023-02-03T11:50:43.660Z,4.40
2023-02-03T11:51:51.264Z,4.38
2023-02-03T11:52:59.133Z,4.39
2023-02-03T11:54:19.354Z,4.41
2023-02-03T11:55:33.122Z,4.43
2023-02-03T11:56:53.555Z,4.43
2023-02-03T11:58:00.468Z,4.44
2023-02-03T11:59:05.342Z,4.46
2023-02-03T12:00:27.795Z,4.46
2023-02-03T12:01:38.915Z,4.46
2023-02-03T12:02:40.867Z,4.48
2023-02-03T12:03:51.869Z,4.51
2023-02-03T12:05:12.437Z,4.47
2023-02-03T12:06:32.911Z,4.49
2023-02-03T12:07:43.867Z,4.50
2023-02-03T12:09:00.809Z,4.58
2023-02-03T12:10:11.951Z,4.64
2023-02-03T12:11:13.727Z,4.69
2023-02-03T12:12:21.342Z,4.71
2023-02-03T12:13:41.688Z,4.70
2023-02-03T12:14:43.522Z,4.71
2023-02-03T12:15:54.934Z,4.73
2023-02-03T12:16:56.823Z,4.71
2023-02-03T12:17:58.618Z,4.72
2023-02-03T12:19:00.451Z,4.73
2023-02-03T12:20:20.908Z,4.74
2023-02-03T12:21:34.453Z,4.73
2023-02-03T12:22:55.072Z,4.71
2023-02-03T12:24:12.523Z,4.69
2023-02-03T12:25:17.073Z,4.68
2023-02-03T12:26:21.928Z,4.63
2023-02-03T12:27:39.259Z,4.60
2023-02-03T12:28:47.112Z,4.61
2023-02-03T12:29:57.166Z,4.60
2023-02-03T12:31:02.994Z,4.61
2023-02-03T12:32:23.303Z,4.60
2023-02-03T12:33:28.604Z,4.54
2023-02-03T12:34:39.540Z,4.53
2023-02-03T12:36:01.587Z,4.51
2023-02-03T12:37:13.213Z,4.52
2023-02-03T12:38:26.628Z,4.52
2023-02-03T12:39:37.035Z,4.53
2023-02-03T12:40:54.643Z,4.53
2023-02-03T12:42:06.053Z,4.52
2023-02-03T12:43:17.022Z,4.52
2023-02-03T12:44:23.329Z,4.48
2023-02-03T12:45:29.764Z,4.47
2023-02-03T12:46:35.789Z,4.46
2023-02-03T12:47:45.646Z,4.47
2023-02-03T12:49:02.531Z,4.49
2023-02-03T12:50:06.991Z,4.47
2023-02-03T12:51:12.999Z,4.50
2023-02-03T12:52:19.149Z,4.48
2023-02-03T12:53:39.802Z,4.51
2023-02-03T12:54:41.712Z,4.53
2023-02-03T12:55:45.480Z,4.55
2023-02-03T12:56:49.800Z,4.57
2023-02-03T12:57:57.811Z,4.60
2023-02-03T12:59:05.961Z,4.55
2023-02-03T13:00:14.117Z,4.57
2023-02-03T13:01:22.217Z,4.69
2023-02-03T13:02:27.590Z,4.74
2023-02-03T13:03:29.442Z,4.76
2023-02-03T13:04:39.073Z,4.77
2023-02-03T13:05:41.082Z,4.77
2023-02-03T13:06:58.574Z,4.78
2023-02-03T13:08:08.189Z,4.78
2023-02-03T13:09:21.474Z,4.73
2023-02-03T13:10:36.159Z,4.72
2023-02-03T13:11:41.222Z,4.74
2023-02-03T13:12:47.725Z,4.72
2023-02-03T13:13:52.883Z,4.70
2023-02-03T13:14:57.543Z,4.67
2023-02-03T13:16:00.646Z,4.64
2023-02-03T13:17:07.732Z,4.67
2023-02-03T13:18:16.021Z,4.68
2023-02-03T13:19:21.784Z,4.67
2023-02-03T13:20:25.200Z,4.59
2023-02-03T13:21:27.248Z,4.58
2023-02-03T13:22:29.249Z,4.55
2023-02-03T13:23:31.272Z,4.53
2023-02-03T13:24:33.245Z,4.51
2023-02-03T13:25:44.371Z,4.52
2023-02-03T13:26:54.346Z,4.55
2023-02-03T13:28:03.399Z,4.59
2023-02-03T13:29:23.697Z,4.60
2023-02-03T13:30:31.476Z,4.63
2023-02-03T13:31:33.394Z,4.60
2023-02-03T13:32:41.225Z,4.66
2023-02-03T13:34:01.830Z,4.71
2023-02-03T13:35:21.583Z,4.76
2023-02-03T13:36:26.611Z,4.75
2023-02-03T13:37:36.615Z,4.74
2023-02-03T13:38:44.563Z,4.73
2023-02-03T13:39:55.683Z,4.71
2023-02-03T13:41:10.293Z,4.72
2023-02-03T13:42:12.933Z,4.69
2023-02-03T13:43:32.026Z,4.68
2023-02-03T13:44:40.110Z,4.66
2023-02-03T13:45:43.976Z,4.59
2023-02-03T13:46:49.135Z,4.57
2023-02-03T13:47:52.629Z,4.57
2023-02-03T13:48:55.591Z,4.59
2023-02-03T13:50:03.208Z,4.57
2023-02-03T13:51:13.828Z,4.58
2023-02-03T13:52:27.831Z,4.58
2023-02-03T13:53:34.108Z,4.56
2023-02-03T13:54:38.236Z,4.54
2023-02-03T13:55:42.403Z,4.57
2023-02-03T13:56:53.623Z,4.60
2023-02-03T13:57:55.727Z,4.62
2023-02-03T13:59:02.314Z,4.58
2023-02-03T14:00:06.374Z,4.59
2023-02-03T14:01:28.406Z,4.58
2023-02-03T14:02:32.309Z,4.55
2023-02-03T14:03:36.973Z,4.53
2023-02-03T14:04:58.339Z,4.52
2023-02-03T14:06:02.034Z,4.52
2023-02-03T14:07:06.230Z,4.54
2023-02-03T14:08:26.504Z,4.55
2023-02-03T14:09:31.373Z,4.51
2023-02-03T14:10:33.252Z,4.52
2023-02-03T14:11:35.129Z,4.50
2023-02-03T14:12:37.929Z,4.47
2023-02-03T14:13:39.722Z,4.46
2023-02-03T14:14:42.806Z,4.45
2023-02-03T14:15:47.153Z,4.45
2023-02-03T14:16:52.023Z,4.44
2023-02-03T14:17:58.842Z,4.43
2023-02-03T14:19:00.710Z,4.41
2023-02-03T14:20:03.707Z,4.39